createdAt,value
2023-03-11T00:00:31.991Z,96700.80
2023-03-11T00:10:40.622Z,96693.22
2023-03-11T00:20:48.424Z,96678.07
2023-03-11T00:30:54.677Z,96669.58
2023-03-11T00:41:01.754Z,96662.61
2023-03-11T00:51:12.692Z,96646.75
2023-03-11T01:01:21.525Z,96635.30
2023-03-11T01:11:27.184Z,96627.14
2023-03-11T01:21:34.949Z,96621.75
2023-03-11T01:31:40.866Z,96623.83
2023-03-11T01:41:46.583Z,96620.88
2023-03-11T01:51:55.498Z,96609.25
2023-03-11T02:02:09.614Z,96605.26
2023-03-11T02:12:16.586Z,96602.70
2023-03-11T02:22:23.784Z,96601.63
2023-03-11T02:32:29.985Z,96592.08
2023-03-11T02:42:35.857Z,96593.71
2023-03-11T02:52:41.867Z,96592.44
2023-03-11T03:02:51.837Z,96594.41
2023-03-11T03:12:57.528Z,96592.90
2023-03-11T03:23:03.429Z,96596.40
2023-03-11T03:33:10.015Z,96594.56
2023-03-11T03:43:16.005Z,96598.62
2023-03-11T03:53:21.851Z,96591.20
2023-03-11T04:03:28.493Z,96596.98
2023-03-11T04:13:34.160Z,96598.40
2023-03-11T04:23:39.776Z,96597.74
2023-03-11T04:33:45.429Z,96600.13
2023-03-11T04:43:51.170Z,96605.80
2023-03-11T04:53:56.901Z,96608.88
2023-03-11T05:04:02.655Z,96611.38
2023-03-11T05:14:08.391Z,96618.88
2023-03-11T05:24:14.267Z,96630.18
2023-03-11T05:34:20.425Z,96634.64
2023-03-11T05:44:26.149Z,96652.05
2023-03-11T05:54:31.871Z,96661.73
2023-03-11T06:04:37.845Z,96667.81
2023-03-11T06:14:44.059Z,96676.17
2023-03-11T06:24:49.707Z,96693.29
2023-03-11T06:34:55.985Z,96707.64
2023-03-11T06:45:03.747Z,96714.14
2023-03-11T06:55:11.051Z,96726.85
2023-03-11T07:05:18.143Z,96750.31
2023-03-11T07:15:22.399Z,96775.10
2023-03-11T07:25:28.683Z,96793.54
2023-03-11T07:35:36.304Z,96805.95
2023-03-11T07:45:41.968Z,96818.27
2023-03-11T07:55:47.722Z,96826.44
2023-03-11T08:05:54.020Z,96850.15
2023-03-11T08:15:59.733Z,96860.86
2023-03-11T08:26:07.596Z,96878.83
2023-03-11T08:36:13.506Z,96891.92
2023-03-11T08:46:23.908Z,96905.12
2023-03-11T08:56:30.165Z,96925.80
2023-03-11T09:06:36.459Z,96940.16
2023-03-11T09:16:42.314Z,96963.04
2023-03-11T09:26:48.111Z,97000.67
2023-03-11T09:36:53.797Z,97038.52
2023-03-11T09:47:37.000Z,97060.28
2023-03-11T09:57:42.658Z,97092.64
2023-03-11T10:07:54.934Z,97130.42
2023-03-11T10:18:25.176Z,97159.96
2023-03-11T10:28:37.654Z,97194.18
2023-03-11T10:38:47.911Z,97220.41
2023-03-11T10:48:53.726Z,97254.54
2023-03-11T10:58:59.987Z,97277.73
2023-03-11T11:09:22.957Z,97303.66
2023-03-11T11:19:30.915Z,97339.02
2023-03-11T11:29:36.709Z,97352.63
2023-03-11T11:39:51.767Z,97393.44
2023-03-11T11:50:02.104Z,97418.50
2023-03-11T12:00:21.694Z,97439.54
2023-03-11T12:10:32.274Z,97455.66
2023-03-11T12:20:43.498Z,97481.27
2023-03-11T12:30:53.403Z,97505.02
2023-03-11T12:41:07.681Z,97541.17
2023-03-11T13:01:55.155Z,97605.25
2023-03-11T13:12:01.757Z,97632.96
2023-03-11T13:22:06.967Z,97659.90
2023-03-11T13:32:48.907Z,97687.23
2023-03-11T13:42:59.151Z,97712.40
2023-03-11T13:53:09.210Z,97744.09
2023-03-11T14:03:19.201Z,97766.05
2023-03-11T14:13:26.863Z,97793.98
2023-03-11T14:23:37.263Z,97826.88
2023-03-11T14:33:42.905Z,97849.41
2023-03-11T14:43:52.912Z,97867.32
2023-03-11T14:54:07.606Z,97881.45
2023-03-11T15:04:16.087Z,97909.55
2023-03-11T15:14:25.642Z,97936.52
2023-03-11T15:24:33.772Z,97957.52
2023-03-11T15:34:39.544Z,97972.11
2023-03-11T15:44:50.214Z,97987.38
2023-03-11T15:54:56.314Z,97997.20
2023-03-11T16:05:02.261Z,98024.13
2023-03-11T16:15:17.412Z,98051.42
2023-03-11T16:25:27.221Z,98074.98
2023-03-11T16:35:33.300Z,98102.02
2023-03-11T16:45:39.238Z,98123.63
2023-03-11T16:55:46.916Z,98147.01
2023-03-11T17:06:01.141Z,98177.94
2023-03-11T17:16:08.264Z,98201.87
2023-03-11T17:26:15.544Z,98215.00
2023-03-11T17:36:21.773Z,98227.21
2023-03-11T17:46:25.941Z,98247.87
2023-03-11T17:56:31.783Z,98269.30
2023-03-11T18:06:38.436Z,98287.31
2023-03-11T18:16:47.331Z,98313.31
2023-03-11T18:26:53.083Z,98337.37
2023-03-11T18:36:58.791Z,98355.27
2023-03-11T18:47:04.472Z,98370.39
2023-03-11T18:57:10.420Z,98384.80
2023-03-11T19:07:16.077Z,98393.95
2023-03-11T19:17:21.747Z,98406.66
2023-03-11T19:27:27.536Z,98425.82
2023-03-11T19:37:34.153Z,98435.42
2023-03-11T19:47:40.161Z,98445.87
2023-03-11T19:57:44.332Z,98459.30
2023-03-11T20:07:49.961Z,98467.27
2023-03-11T20:17:56.006Z,98478.28
2023-03-11T20:28:02.451Z,98488.84
2023-03-11T20:38:09.381Z,98498.90
2023-03-11T20:48:15.175Z,98505.13
2023-03-11T20:58:20.894Z,98505.18
2023-03-11T21:08:26.579Z,98513.96
2023-03-11T21:18:32.723Z,98517.96
2023-03-11T21:28:40.070Z,98528.44
2023-03-11T21:38:46.302Z,98532.38
2023-03-11T21:48:52.416Z,98539.00
2023-03-11T21:58:58.607Z,98542.42
2023-03-11T22:09:03.516Z,98553.84
2023-03-11T22:19:11.247Z,98564.52
2023-03-11T22:29:16.936Z,98569.27
2023-03-11T22:39:22.580Z,98574.69
2023-03-11T22:49:28.403Z,98582.04
2023-03-11T22:59:34.074Z,98575.19
2023-03-11T23:09:39.828Z,98576.73
2023-03-11T23:19:45.505Z,98574.31
2023-03-11T23:29:50.599Z,98573.70
2023-03-11T23:39:56.247Z,98576.82
2023-03-11T23:50:00.485Z,98583.94
